Time;durP1;ratioP1;P1;durP2;ratioP2;P2;SDS_P1;SDS_P2;PMS_P1;PMS_P2;Temp;Humidity;BMP_temperature;BMP_pressure;BME280_temperature;BME280_humidity;BME280_pressure;Samples;Min_cycle;Max_cycle;Signal;HPM_P1;HPM_P2
2022/04/30 00:00:29;;;;;;;9.50;8.60;;;;;;;6.47;100.00;100077.06;5032382;28;20182;-76
2022/04/30 00:03:00;;;;;;;9.37;8.53;;;;;;;6.47;100.00;100073.59;5032595;28;20218;-79
2022/04/30 00:05:32;;;;;;;9.40;8.60;;;;;;;6.41;100.00;100074.31;5015726;28;20228;-77
2022/04/30 00:08:01;;;;;;;9.60;8.70;;;;;;;6.34;100.00;100076.88;4999375;28;20190;-76
2022/04/30 00:10:28;;;;;;;9.37;8.47;;;;;;;6.32;100.00;100073.56;4999110;28;20477;-78
2022/04/30 00:12:55;;;;;;;9.73;8.63;;;;;;;6.31;100.00;100081.72;5015077;28;20665;-77
2022/04/30 00:15:22;;;;;;;9.07;8.20;;;;;;;6.15;100.00;100077.41;5015290;28;20190;-79
2022/04/30 00:17:50;;;;;;;9.57;8.37;;;;;;;6.12;100.00;100081.22;5015280;28;20265;-79
2022/04/30 00:20:18;;;;;;;9.97;8.97;;;;;;;6.04;100.00;100083.97;5032611;28;20277;-77
2022/04/30 00:22:45;;;;;;;10.20;8.37;;;;;;;5.95;100.00;100079.72;5032406;28;20196;-77
2022/04/30 00:25:14;;;;;;;10.73;8.80;;;;;;;5.90;100.00;100082.09;5015403;28;20520;-77
2022/04/30 00:27:40;;;;;;;9.43;8.53;;;;;;;5.84;100.00;100071.28;5014758;28;20243;-76
2022/04/30 00:30:09;;;;;;;9.87;8.97;;;;;;;5.79;100.00;100082.47;5015344;28;20501;-77
2022/04/30 00:32:36;;;;;;;10.50;9.10;;;;;;;5.77;100.00;100079.16;5015424;28;20210;-80
2022/04/30 00:35:03;;;;;;;9.27;8.43;;;;;;;5.70;100.00;100072.88;5015019;28;20218;-77
2022/04/30 00:37:30;;;;;;;9.73;8.77;;;;;;;5.67;100.00;100074.09;5032510;28;20617;-78
2022/04/30 00:39:57;;;;;;;9.90;9.00;;;;;;;5.63;100.00;100063.97;5032456;28;20409;-77
2022/04/30 00:42:24;;;;;;;9.60;8.80;;;;;;;5.60;100.00;100072.31;5032013;28;20555;-77
2022/04/30 00:44:50;;;;;;;10.50;9.40;;;;;;;5.56;100.00;100069.16;5014850;28;20226;-77
2022/04/30 00:47:19;;;;;;;10.40;9.30;;;;;;;5.55;100.00;100070.16;5014345;28;20232;-77
2022/04/30 00:49:46;;;;;;;9.97;8.97;;;;;;;5.53;100.00;100060.72;5032078;28;20240;-77
2022/04/30 00:52:15;;;;;;;9.70;8.70;;;;;;;5.46;100.00;100055.28;5014934;28;20209;-77
2022/04/30 00:54:48;;;;;;;9.70;8.70;;;;;;;5.38;100.00;100052.69;5014812;28;20198;-76
2022/04/30 00:57:17;;;;;;;9.77;8.77;;;;;;;5.37;100.00;100051.03;4998449;28;20286;-77
2022/04/30 00:59:45;;;;;;;9.63;8.73;;;;;;;5.31;100.00;100049.91;4998507;28;20216;-76
2022/04/30 01:02:12;;;;;;;9.43;8.53;;;;;;;5.26;100.00;100049.63;5014408;28;20581;-76
2022/04/30 01:04:59;;;;;;;9.63;8.77;;;;;;;5.24;100.00;100040.16;5031673;28;20186;-76
2022/04/30 01:07:27;;;;;;;10.30;9.30;;;;;;;5.19;100.00;100034.53;5033309;28;20644;-77
2022/04/30 01:09:54;;;;;;;10.83;8.87;;;;;;;5.15;100.00;100039.38;5018042;28;20182;-77
2022/04/30 01:12:22;;;;;;;10.00;9.10;;;;;;;5.12;100.00;100044.22;5018385;28;20206;-76
2022/04/30 01:14:52;;;;;;;9.80;8.90;;;;;;;5.07;100.00;100036.78;5018136;28;20183;-77
2022/04/30 01:17:20;;;;;;;9.90;8.90;;;;;;;5.10;100.00;100047.03;5018078;28;20586;-77
2022/04/30 01:19:47;;;;;;;11.00;8.93;;;;;;;5.07;100.00;100033.28;5017987;28;20221;-76
2022/04/30 01:22:33;;;;;;;10.07;9.17;;;;;;;5.05;100.00;100036.09;5018063;28;20682;-79
2022/04/30 01:25:02;;;;;;;10.30;9.33;;;;;;;5.05;100.00;100028.13;5017775;28;20261;-77
2022/04/30 01:27:30;;;;;;;9.43;8.53;;;;;;;5.02;100.00;100022.34;5001538;28;20194;-77
2022/04/30 01:29:59;;;;;;;10.50;9.50;;;;;;;5.01;100.00;100024.19;5017573;28;20206;-77
2022/04/30 01:38:11;;;;;;;9.67;8.73;;;;;;;4.99;100.00;100026.19;5020215;28;20257;-76
2022/04/30 01:40:38;;;;;;;9.43;8.53;;;;;;;4.96;100.00;100026.53;5034986;28;20247;-77
2022/04/30 01:43:06;;;;;;;9.70;8.63;;;;;;;4.96;100.00;100020.38;5017285;28;20191;-76
2022/04/30 01:45:34;;;;;;;9.73;8.73;;;;;;;4.91;100.00;100023.56;5034863;28;20209;-77
2022/04/30 01:48:03;;;;;;;10.23;8.33;;;;;;;4.86;100.00;100023.25;5034885;28;20186;-77
2022/04/30 01:50:29;;;;;;;9.80;8.80;;;;;;;4.83;100.00;100020.97;5034858;28;20190;-76
2022/04/30 01:52:56;;;;;;;10.17;8.90;;;;;;;4.82;100.00;100017.47;5034976;28;20542;-77
2022/04/30 01:55:23;;;;;;;9.50;8.60;;;;;;;4.79;100.00;100015.19;5034703;28;20541;-76
2022/04/30 01:57:57;;;;;;;9.30;8.40;;;;;;;4.77;100.00;100017.16;5001754;28;20274;-76
2022/04/30 02:00:25;;;;;;;9.73;8.80;;;;;;;4.79;100.00;100017.00;5017774;28;20456;-77
2022/04/30 02:02:54;;;;;;;10.00;9.10;;;;;;;4.78;100.00;100005.53;5013217;28;20317;-76
2022/04/30 02:05:22;;;;;;;11.43;9.20;;;;;;;4.81;100.00;100010.50;5013903;28;20198;-76
2022/04/30 02:07:52;;;;;;;9.63;8.73;;;;;;;4.75;100.00;100005.91;5013602;28;20653;-76
2022/04/30 02:10:21;;;;;;;9.80;8.90;;;;;;;4.72;100.00;100006.22;5013656;28;20241;-77
2022/04/30 02:12:50;;;;;;;9.60;8.70;;;;;;;4.65;100.00;100007.94;5013603;28;20465;-76
2022/04/30 02:15:18;;;;;;;10.23;9.27;;;;;;;4.63;100.00;99999.31;5013684;28;20187;-77
2022/04/30 02:17:46;;;;;;;10.37;9.43;;;;;;;4.63;100.00;100006.44;5012858;28;20199;-76
2022/04/30 02:20:33;;;;;;;11.33;8.87;;;;;;;4.63;100.00;99999.31;5013551;28;20673;-77
2022/04/30 02:23:02;;;;;;;9.37;8.43;;;;;;;4.63;100.00;99998.47;5013832;28;20195;-77
2022/04/30 02:25:29;;;;;;;9.53;8.47;;;;;;;4.65;100.00;100007.09;5013441;28;20534;-77
2022/04/30 02:28:04;;;;;;;10.23;9.23;;;;;;;4.66;100.00;100003.47;4997246;28;20687;-77
2022/04/30 02:30:38;;;;;;;10.27;9.27;;;;;;;4.65;100.00;100004.44;5013553;28;20229;-76
2022/04/30 02:33:11;;;;;;;10.07;8.70;;;;;;;4.66;100.00;99998.97;5013061;28;20179;-76
2022/04/30 02:35:43;;;;;;;9.37;8.47;;;;;;;4.65;100.00;99991.19;5013283;28;20543;-76
2022/04/30 02:38:10;;;;;;;9.67;8.77;;;;;;;4.62;100.00;99983.56;5012908;28;20262;-76
2022/04/30 02:40:41;;;;;;;9.60;8.60;;;;;;;4.62;100.00;99987.03;5013353;28;20214;-76
2022/04/30 02:43:10;;;;;;;10.50;8.73;;;;;;;4.63;100.00;99993.16;5012864;28;20839;-76
2022/04/30 02:45:38;;;;;;;9.30;8.40;;;;;;;4.62;100.00;99980.91;5013945;28;20197;-76
2022/04/30 02:48:06;;;;;;;9.60;8.70;;;;;;;4.62;100.00;99976.41;5014146;28;20237;-77
2022/04/30 02:50:35;;;;;;;9.53;8.70;;;;;;;4.64;100.00;99974.44;5013878;28;20187;-78
2022/04/30 02:53:02;;;;;;;9.30;8.40;;;;;;;4.65;100.00;99975.25;5012371;28;20598;-80
2022/04/30 02:55:29;;;;;;;9.03;8.23;;;;;;;4.62;100.00;99971.09;5013051;28;20392;-76
2022/04/30 03:00:48;;;;;;;9.23;8.33;;;;;;;4.61;100.00;99968.66;5013784;28;20270;-76
2022/04/30 03:03:53;;;;;;;9.70;8.80;;;;;;;4.59;100.00;99960.84;4941766;29;20223;-76
2022/04/30 03:06:22;;;;;;;9.30;8.40;;;;;;;4.58;100.00;99968.97;4937006;29;20197;-77
2022/04/30 03:08:49;;;;;;;8.77;7.87;;;;;;;4.55;100.00;99970.16;4982043;28;20650;-76
2022/04/30 03:11:19;;;;;;;8.67;7.77;;;;;;;4.55;100.00;99971.97;5012730;28;20183;-77
2022/04/30 03:13:46;;;;;;;8.93;8.13;;;;;;;4.51;100.00;99975.97;5014115;28;20237;-75
2022/04/30 03:21:45;;;;;;;9.00;8.20;;;;;;;4.34;100.00;99968.06;5012908;28;20241;-76
2022/04/30 03:24:17;;;;;;;9.67;8.43;;;;;;;4.32;100.00;99980.69;5013265;28;20190;-77
2022/04/30 03:26:45;;;;;;;11.77;8.27;;;;;;;4.27;100.00;99975.06;5013286;28;20242;-77
2022/04/30 03:29:12;;;;;;;8.90;8.00;;;;;;;4.27;100.00;99974.25;5012822;28;20222;-77
2022/04/30 03:31:41;;;;;;;8.77;7.97;;;;;;;4.25;100.00;99976.22;5013497;28;20197;-77
2022/04/30 03:34:12;;;;;;;8.77;7.87;;;;;;;4.23;100.00;99979.06;4995709;28;20206;-77
2022/04/30 03:36:39;;;;;;;8.87;7.97;;;;;;;4.19;100.00;99974.28;5012468;28;20183;-76
2022/04/30 03:39:06;;;;;;;9.03;8.03;;;;;;;4.17;100.00;99978.91;5012157;28;20218;-76
2022/04/30 03:41:33;;;;;;;8.90;8.10;;;;;;;4.16;100.00;99967.47;5011767;28;20310;-77
2022/04/30 03:44:01;;;;;;;8.90;8.10;;;;;;;4.15;100.00;99971.13;5012405;28;20214;-77
2022/04/30 03:46:30;;;;;;;7.80;7.03;;;;;;;4.12;100.00;99979.41;5012042;28;20214;-78
2022/04/30 03:48:57;;;;;;;8.90;8.10;;;;;;;4.10;100.00;99983.25;5012716;28;20218;-77
2022/04/30 03:51:24;;;;;;;8.70;7.90;;;;;;;4.09;100.00;99978.94;5013456;28;20188;-77
2022/04/30 03:53:52;;;;;;;8.50;7.70;;;;;;;4.13;100.00;99980.25;5012036;28;20501;-76
2022/04/30 03:56:19;;;;;;;8.80;8.00;;;;;;;4.12;100.00;99978.59;4995725;28;20408;-77
2022/04/30 03:58:48;;;;;;;8.80;7.83;;;;;;;4.16;100.00;99977.25;5013053;28;20225;-77
2022/04/30 04:01:18;;;;;;;9.10;8.27;;;;;;;4.18;100.00;99973.44;4995517;28;20520;-76
2022/04/30 04:03:45;;;;;;;10.73;8.07;;;;;;;4.23;100.00;99983.53;5013001;28;20179;-74
2022/04/30 04:06:13;;;;;;;9.37;8.47;;;;;;;4.27;100.00;99982.19;5011708;28;20206;-74
2022/04/30 04:08:41;;;;;;;9.70;8.80;;;;;;;4.32;100.00;99987.81;5012893;28;20221;-74
2022/04/30 04:11:10;;;;;;;8.50;7.70;;;;;;;4.33;100.00;99992.97;4994941;28;20195;-74
2022/04/30 04:19:10;;;;;;;9.70;8.70;;;;;;;4.49;100.00;99985.94;5011760;28;20262;-77
2022/04/30 04:21:37;;;;;;;9.80;8.83;;;;;;;4.51;100.00;99983.94;5013031;28;20557;-76
2022/04/30 04:26:49;;;;;;;9.90;8.27;;;;;;;4.70;100.00;99986.19;5012654;28;20207;-77
2022/04/30 04:29:16;;;;;;;9.87;8.90;;;;;;;4.81;100.00;99983.13;5012967;28;20218;-77
2022/04/30 04:31:46;;;;;;;9.23;8.37;;;;;;;4.91;100.00;99986.41;5012583;28;20186;-76
2022/04/30 04:34:13;;;;;;;9.43;8.40;;;;;;;5.03;100.00;99982.34;5011177;28;20235;-77
2022/04/30 04:36:40;;;;;;;10.23;8.33;;;;;;;5.15;100.00;99986.25;5011567;28;20270;-76
2022/04/30 04:39:11;;;;;;;8.80;8.00;;;;;;;5.27;100.00;99984.81;5011247;28;20598;-78
2022/04/30 04:41:38;;;;;;;9.00;8.20;;;;;;;5.44;100.00;99992.69;5013051;28;20571;-77
2022/04/30 04:44:05;;;;;;;9.97;9.07;;;;;;;5.57;100.00;99992.91;5016391;28;20262;-75
2022/04/30 04:46:32;;;;;;;11.23;9.73;;;;;;;5.69;100.00;99991.50;5014813;28;20222;-74
2022/04/30 04:48:59;;;;;;;9.70;8.80;;;;;;;5.70;100.00;99990.47;5015074;28;20183;-75
2022/04/30 04:51:27;;;;;;;10.83;8.87;;;;;;;5.88;100.00;99991.00;5015227;28;20191;-76
2022/04/30 04:53:55;;;;;;;9.07;8.17;;;;;;;6.05;100.00;99991.69;4998604;28;20195;-77
2022/04/30 04:56:22;;;;;;;9.13;8.33;;;;;;;6.19;100.00;99997.03;5015881;28;20286;-77
2022/04/30 04:58:49;;;;;;;12.07;8.13;;;;;;;6.32;100.00;99998.22;4998931;28;20229;-74
2022/04/30 05:01:16;;;;;;;8.77;7.87;;;;;;;6.43;100.00;99993.28;5020437;28;20256;-76
2022/04/30 05:03:43;;;;;;;9.20;8.30;;;;;;;6.58;100.00;99991.41;5002723;28;20225;-76
2022/04/30 05:06:10;;;;;;;9.27;7.80;;;;;;;6.70;100.00;99988.28;5035069;28;20225;-77
2022/04/30 05:08:37;;;;;;;8.30;7.50;;;;;;;6.82;100.00;99986.78;5035635;28;20191;-76
2022/04/30 05:11:04;;;;;;;7.80;7.10;;;;;;;6.95;100.00;99989.63;5017809;28;20209;-74
2022/04/30 05:13:30;;;;;;;9.13;8.33;;;;;;;7.08;100.00;99987.94;5035847;28;20206;-74
2022/04/30 05:15:57;;;;;;;8.17;7.40;;;;;;;7.20;100.00;99990.09;5017807;28;20222;-75
2022/04/30 05:18:24;;;;;;;7.70;7.00;;;;;;;7.37;100.00;99988.84;5018357;28;20178;-78
2022/04/30 05:20:51;;;;;;;7.87;7.13;;;;;;;7.52;100.00;99992.25;5017755;28;20196;-76
2022/04/30 05:23:18;;;;;;;7.43;6.73;;;;;;;7.66;100.00;99988.69;5018125;28;20594;-76
2022/04/30 05:25:44;;;;;;;7.87;7.07;;;;;;;7.85;100.00;99985.38;5018054;28;20273;-78
2022/04/30 05:28:11;;;;;;;7.80;7.00;;;;;;;7.97;100.00;99985.69;5017833;28;20222;-77
2022/04/30 05:30:38;;;;;;;7.23;6.63;;;;;;;8.14;100.00;99991.53;5001415;28;20560;-78
2022/04/30 05:33:05;;;;;;;8.23;7.03;;;;;;;8.27;100.00;99991.63;5017717;28;20320;-77
2022/04/30 05:35:32;;;;;;;7.07;6.37;;;;;;;8.37;100.00;99987.59;5017615;28;20217;-76
2022/04/30 05:37:59;;;;;;;7.77;6.67;;;;;;;8.54;100.00;99984.63;5035229;28;20515;-77
2022/04/30 05:40:26;;;;;;;8.17;6.60;;;;;;;8.73;100.00;99987.38;5035009;28;20624;-77
2022/04/30 05:42:52;;;;;;;7.20;6.50;;;;;;;8.89;100.00;99986.22;5017582;28;20206;-74
2022/04/30 05:45:19;;;;;;;7.73;7.03;;;;;;;8.87;100.00;99982.91;5035229;28;20217;-76
2022/04/30 05:47:46;;;;;;;7.33;6.60;;;;;;;8.99;100.00;99991.19;5035518;28;20186;-76
2022/04/30 05:50:13;;;;;;;7.47;6.77;;;;;;;9.06;100.00;99994.69;5034483;28;20285;-77
2022/04/30 05:52:39;;;;;;;7.33;6.70;;;;;;;9.10;100.00;99999.44;5034624;28;20183;-76
2022/04/30 05:55:07;;;;;;;8.53;7.07;;;;;;;9.13;100.00;99996.38;5034606;28;20210;-78
2022/04/30 05:57:33;;;;;;;8.10;6.40;;;;;;;9.16;100.00;99992.47;5017761;28;20255;-77
2022/04/30 06:00:00;;;;;;;7.37;6.67;;;;;;;9.22;100.00;99997.84;5034302;28;20269;-77
2022/04/30 06:02:27;;;;;;;7.40;6.30;;;;;;;9.33;100.00;99995.59;5013451;28;20223;-77
2022/04/30 06:04:54;;;;;;;8.27;7.20;;;;;;;9.46;100.00;99992.94;5014753;28;20187;-77
2022/04/30 06:07:21;;;;;;;9.47;7.03;;;;;;;9.58;100.00;99996.66;5013643;28;20278;-77
2022/04/30 06:09:47;;;;;;;8.10;7.40;;;;;;;9.64;100.00;99994.00;5014849;28;20191;-78
2022/04/30 06:12:14;;;;;;;7.70;7.10;;;;;;;9.70;100.00;99992.38;5014647;28;20600;-74
2022/04/30 06:14:41;;;;;;;8.53;7.50;;;;;;;9.83;100.00;99995.03;5015012;28;20205;-74
2022/04/30 06:17:08;;;;;;;8.30;7.50;;;;;;;10.03;100.00;99993.16;5014619;28;20262;-75
2022/04/30 06:19:35;;;;;;;8.13;7.30;;;;;;;10.39;100.00;99998.09;5015072;28;20294;-78
2022/04/30 06:22:03;;;;;;;8.23;7.50;;;;;;;10.67;100.00;99979.06;5013446;28;20222;-73
2022/04/30 06:24:30;;;;;;;8.13;7.43;;;;;;;10.96;100.00;99989.22;5014639;28;20210;-77
2022/04/30 06:26:57;;;;;;;9.07;8.00;;;;;;;11.24;100.00;99988.09;5014365;28;20411;-74
2022/04/30 06:29:23;;;;;;;8.73;7.40;;;;;;;11.53;100.00;99983.97;5014682;28;20206;-74
2022/04/30 06:31:51;;;;;;;13.77;8.20;;;;;;;11.73;100.00;99982.81;5014727;28;20188;-77
2022/04/30 06:34:18;;;;;;;9.03;8.10;;;;;;;11.88;100.00;99986.00;5014467;28;20187;-77
2022/04/30 06:36:45;;;;;;;8.80;8.00;;;;;;;12.09;100.00;99981.28;5013253;28;20193;-76
2022/04/30 06:39:12;;;;;;;8.73;8.00;;;;;;;12.27;100.00;99984.00;5013253;28;20463;-77
2022/04/30 06:41:39;;;;;;;9.47;8.63;;;;;;;12.29;100.00;99971.16;5014636;28;20478;-77
2022/04/30 06:44:06;;;;;;;9.57;8.60;;;;;;;12.51;100.00;99972.38;5013056;28;20780;-74
2022/04/30 06:46:33;;;;;;;9.77;8.87;;;;;;;12.82;100.00;99968.72;5014305;28;20630;-76
2022/04/30 06:48:59;;;;;;;9.53;8.57;;;;;;;13.01;100.00;99967.63;4996602;28;20219;-74
2022/04/30 06:51:26;;;;;;;9.60;8.70;;;;;;;12.86;100.00;99966.38;5013218;28;20207;-74
2022/04/30 06:59:24;;;;;;;10.73;8.90;;;;;;;13.67;100.00;99967.50;5013582;28;20262;-76
2022/04/30 07:01:59;;;;;;;10.60;9.57;;;;;;;13.72;99.20;99971.41;5023146;28;20214;-75
2022/04/30 07:04:29;;;;;;;10.23;9.23;;;;;;;13.96;97.47;99964.97;5016782;28;20233;-76
2022/04/30 07:06:56;;;;;;;10.27;9.37;;;;;;;14.12;94.24;99966.97;5016151;28;20203;-76
2022/04/30 07:09:23;;;;;;;10.60;9.50;;;;;;;14.19;90.77;99958.75;5016720;28;20178;-76
2022/04/30 07:11:49;;;;;;;10.37;9.47;;;;;;;14.32;92.22;99961.25;5016641;28;20253;-78
2022/04/30 07:14:16;;;;;;;10.30;9.20;;;;;;;14.39;97.01;99970.88;5033448;28;20271;-74
2022/04/30 07:16:43;;;;;;;9.87;9.07;;;;;;;13.86;98.87;99967.41;5033646;28;20187;-74
2022/04/30 07:19:10;;;;;;;10.30;9.30;;;;;;;13.97;96.22;99967.44;5033369;28;20621;-79
2022/04/30 07:21:38;;;;;;;10.17;9.10;;;;;;;14.32;96.32;99972.84;5033426;28;20196;-74
2022/04/30 07:24:04;;;;;;;9.77;8.73;;;;;;;14.66;95.23;99973.03;5032669;28;20552;-74
2022/04/30 07:26:31;;;;;;;9.70;8.80;;;;;;;14.85;92.74;99966.44;5016098;28;20212;-76
2022/04/30 07:28:58;;;;;;;9.83;9.07;;;;;;;14.81;87.81;99976.06;5033126;28;20179;-77
2022/04/30 07:31:25;;;;;;;10.63;9.53;;;;;;;14.90;88.27;99967.34;5015669;28;20210;-75
2022/04/30 07:33:52;;;;;;;9.87;8.97;;;;;;;15.06;86.27;99964.97;5032149;28;20672;-76
2022/04/30 07:36:19;;;;;;;9.67;8.93;;;;;;;15.19;87.11;99964.66;5015725;28;20219;-75
2022/04/30 07:38:46;;;;;;;9.80;8.90;;;;;;;15.26;87.75;99966.16;5015644;28;20531;-73
2022/04/30 07:41:12;;;;;;;10.37;9.27;;;;;;;15.27;86.56;99966.97;5032795;28;20623;-76
2022/04/30 07:43:39;;;;;;;10.53;9.43;;;;;;;15.28;86.20;99971.31;5015471;28;20297;-75
2022/04/30 07:46:06;;;;;;;10.27;9.20;;;;;;;15.39;88.54;99967.75;4998980;28;20219;-75
2022/04/30 07:48:38;;;;;;;10.30;9.30;;;;;;;15.62;90.50;99962.25;5016318;28;20186;-75
2022/04/30 07:51:13;;;;;;;10.47;9.43;;;;;;;15.53;87.99;99969.13;5015100;28;20234;-74
2022/04/30 07:53:43;;;;;;;10.90;9.80;;;;;;;15.66;86.22;99963.41;5000659;28;20203;-76
2022/04/30 07:56:10;;;;;;;10.10;9.20;;;;;;;15.72;84.52;99958.91;5015494;28;20323;-74
2022/04/30 07:58:37;;;;;;;9.70;8.70;;;;;;;15.80;86.65;99964.72;5016125;28;20479;-74
2022/04/30 08:01:05;;;;;;;9.63;8.80;;;;;;;15.89;81.86;99964.28;5015426;28;20230;-75
2022/04/30 08:03:32;;;;;;;9.97;9.10;;;;;;;15.92;82.48;99964.63;5015110;28;20214;-74
2022/04/30 08:05:59;;;;;;;9.93;8.83;;;;;;;16.00;82.72;99952.59;5015278;28;20230;-74
2022/04/30 08:08:26;;;;;;;10.47;9.47;;;;;;;16.03;82.86;99955.63;5015542;28;20284;-74
2022/04/30 08:10:52;;;;;;;10.33;9.43;;;;;;;16.00;85.14;99952.59;5032748;28;20186;-76
2022/04/30 08:13:19;;;;;;;10.13;9.10;;;;;;;16.11;86.20;99948.97;5015994;28;20237;-75
2022/04/30 08:15:46;;;;;;;9.30;8.50;;;;;;;16.32;83.58;99950.09;5032538;28;20186;-74
2022/04/30 08:18:13;;;;;;;9.40;8.50;;;;;;;16.48;81.58;99949.22;5032863;28;20189;-75
2022/04/30 08:20:40;;;;;;;9.53;8.63;;;;;;;16.48;75.68;99943.81;5032630;28;20246;-74
2022/04/30 08:23:08;;;;;;;9.47;8.57;;;;;;;16.59;75.90;99929.38;5032553;28;20524;-74
2022/04/30 08:25:35;;;;;;;9.43;8.47;;;;;;;16.78;76.84;99941.53;5032807;28;20189;-74
2022/04/30 08:28:03;;;;;;;9.43;8.53;;;;;;;16.60;74.86;99931.03;5015133;28;20257;-74
2022/04/30 08:30:31;;;;;;;9.03;8.13;;;;;;;16.95;71.69;99930.63;5032279;28;20270;-74
2022/04/30 08:32:58;;;;;;;8.90;8.10;;;;;;;17.05;73.53;99918.00;5015441;28;20183;-74
2022/04/30 08:35:25;;;;;;;9.37;8.47;;;;;;;17.14;76.59;99927.31;5014936;28;20634;-74
2022/04/30 08:38:07;;;;;;;8.70;7.80;;;;;;;17.04;71.26;99916.38;5016860;28;20228;-75
2022/04/30 08:40:34;;;;;;;9.53;8.10;;;;;;;17.45;70.63;99927.63;5032739;28;20274;-75
2022/04/30 08:43:08;;;;;;;11.90;8.43;;;;;;;17.63;68.10;99927.28;5014558;28;20340;-74
2022/04/30 08:45:40;;;;;;;8.80;7.93;;;;;;;17.80;63.98;99916.28;5014507;28;20649;-74
2022/04/30 08:48:07;;;;;;;8.80;7.87;;;;;;;17.96;61.35;99915.31;5013851;28;20629;-75
2022/04/30 08:50:38;;;;;;;10.57;7.93;;;;;;;18.10;60.90;99919.22;5014540;28;20439;-74
2022/04/30 08:53:06;;;;;;;12.53;8.00;;;;;;;18.20;61.50;99911.13;4997996;28;20182;-74
2022/04/30 08:55:33;;;;;;;8.80;7.97;;;;;;;18.18;62.91;99907.88;5032161;28;20266;-75
2022/04/30 08:58:00;;;;;;;8.73;7.10;;;;;;;18.26;66.08;99904.66;5031649;28;20210;-75
2022/04/30 09:00:27;;;;;;;9.97;7.80;;;;;;;18.49;57.57;99906.94;5031773;28;20248;-74
2022/04/30 09:02:58;;;;;;;8.40;7.60;;;;;;;18.62;58.38;99902.13;5031298;28;20245;-75
2022/04/30 09:05:34;;;;;;;8.37;7.47;;;;;;;18.44;57.15;99903.38;5014049;28;20597;-74
2022/04/30 09:08:02;;;;;;;7.90;7.20;;;;;;;18.57;54.67;99894.00;5014498;28;20174;-75
2022/04/30 09:10:31;;;;;;;8.27;6.37;;;;;;;18.68;52.10;99887.50;5014087;28;20266;-74
2022/04/30 09:13:12;;;;;;;7.43;6.57;;;;;;;18.78;52.44;99891.06;5014196;28;20221;-74
2022/04/30 09:15:40;;;;;;;7.80;6.83;;;;;;;18.90;49.49;99896.25;5012975;28;20475;-74
2022/04/30 09:18:08;;;;;;;7.57;6.30;;;;;;;18.88;48.88;99887.56;5031405;28;20757;-75
2022/04/30 09:20:46;;;;;;;7.67;6.70;;;;;;;19.04;49.93;99886.50;5014196;28;20193;-75
2022/04/30 09:23:43;;;;;;;8.10;6.50;;;;;;;19.29;48.32;99888.44;5031608;28;20751;-75
2022/04/30 09:26:10;;;;;;;7.60;6.50;;;;;;;19.31;50.11;99878.16;4989243;28;20536;-75
2022/04/30 09:28:39;;;;;;;7.10;6.40;;;;;;;19.47;48.30;99881.69;5016004;28;20186;-76
2022/04/30 09:31:09;;;;;;;6.80;6.20;;;;;;;19.32;49.15;99869.69;5017452;28;20184;-76
2022/04/30 09:33:56;;;;;;;8.97;6.50;;;;;;;19.47;47.70;99868.09;5034658;28;20560;-75
2022/04/30 09:39:23;;;;;;;7.20;6.30;;;;;;;19.49;46.79;99844.22;4989820;28;20282;-75
2022/04/30 09:42:00;;;;;;;7.67;5.90;;;;;;;19.71;46.93;99847.44;5034823;28;20211;-75
2022/04/30 09:44:28;;;;;;;5.67;5.17;;;;;;;19.89;40.78;99843.31;5017627;28;20199;-74
2022/04/30 09:46:55;;;;;;;6.93;5.40;;;;;;;20.03;38.05;99837.03;5034364;28;20587;-74
2022/04/30 09:54:53;;;;;;;5.00;4.50;;;;;;;20.32;36.00;99831.81;5019519;28;20196;-76
2022/04/30 09:57:22;;;;;;;9.33;4.70;;;;;;;20.31;35.51;99824.72;5034442;28;20203;-72
2022/04/30 09:59:53;;;;;;;7.23;5.17;;;;;;;20.33;33.56;99821.75;5034166;28;20192;-72
2022/04/30 10:02:21;;;;;;;6.87;5.57;;;;;;;20.29;33.87;99826.09;5033977;28;20250;-73
2022/04/30 10:04:48;;;;;;;7.03;5.07;;;;;;;20.35;35.26;99812.19;5017349;28;20226;-79
2022/04/30 10:07:19;;;;;;;8.17;5.07;;;;;;;20.25;33.76;99805.97;5016713;28;20202;-73
2022/04/30 10:10:01;;;;;;;6.37;4.70;;;;;;;20.17;33.42;99793.75;5017211;28;20175;-72
2022/04/30 10:12:33;;;;;;;7.33;4.73;;;;;;;20.24;34.41;99797.00;5016680;28;20199;-74
2022/04/30 10:15:04;;;;;;;6.90;5.03;;;;;;;20.44;34.21;99794.19;5016784;28;20635;-73
2022/04/30 10:17:41;;;;;;;7.07;4.67;;;;;;;20.56;35.14;99794.69;5034630;28;20215;-74
2022/04/30 10:20:16;;;;;;;5.87;4.90;;;;;;;20.65;32.72;99789.47;5033931;28;20450;-75
2022/04/30 10:22:54;;;;;;;5.00;4.50;;;;;;;20.75;32.59;99786.69;5017427;28;20394;-77
2022/04/30 10:25:41;;;;;;;5.00;4.50;;;;;;;20.87;32.21;99781.69;5033767;28;20201;-75
2022/04/30 10:28:19;;;;;;;6.20;4.50;;;;;;;20.89;32.34;99775.97;5000520;28;20181;-75
2022/04/30 10:30:58;;;;;;;5.43;4.60;;;;;;;21.13;33.31;99779.63;5033822;28;20655;-74
2022/04/30 10:33:26;;;;;;;4.70;4.30;;;;;;;21.24;33.47;99781.13;5016524;28;20182;-73
2022/04/30 10:36:08;;;;;;;7.33;4.73;;;;;;;21.39;31.67;99783.75;5033414;28;20186;-73
2022/04/30 10:38:35;;;;;;;4.80;4.30;;;;;;;21.37;33.30;99777.75;5033671;28;20539;-73
2022/04/30 10:41:03;;;;;;;5.23;4.10;;;;;;;21.35;32.22;99779.97;5016199;28;20277;-73
2022/04/30 10:43:42;;;;;;;8.47;4.70;;;;;;;21.41;32.65;99778.00;5016279;28;20244;-74
2022/04/30 10:46:21;;;;;;;5.00;4.13;;;;;;;21.34;33.85;99774.78;5015617;28;20188;-73
2022/04/30 10:48:50;;;;;;;6.63;4.67;;;;;;;21.48;32.26;99773.03;5033346;28;20182;-73
2022/04/30 10:51:53;;;;;;;6.43;4.60;;;;;;;21.65;32.34;99773.38;5031615;28;20228;-72
2022/04/30 10:54:21;;;;;;;5.50;4.67;;;;;;;21.66;32.39;99766.00;4991909;28;20283;-72
2022/04/30 10:56:59;;;;;;;6.90;4.80;;;;;;;21.54;32.25;99750.06;5016152;28;20215;-74
2022/04/30 10:59:26;;;;;;;6.27;5.10;;;;;;;21.51;32.66;99754.16;5030735;28;20589;-73
2022/04/30 11:01:53;;;;;;;5.57;4.23;;;;;;;21.60;32.20;99757.09;5033056;28;20229;-74
2022/04/30 11:04:20;;;;;;;5.40;4.40;;;;;;;21.79;31.58;99755.22;5033276;28;20201;-73
2022/04/30 11:06:52;;;;;;;5.20;3.97;;;;;;;21.92;31.91;99749.09;4999359;28;20214;-72
2022/04/30 11:09:20;;;;;;;3.87;3.57;;;;;;;22.07;31.74;99741.88;5015893;28;20207;-73
2022/04/30 11:11:48;;;;;;;5.33;3.90;;;;;;;22.11;31.91;99735.53;5015507;28;20200;-73
2022/04/30 11:14:16;;;;;;;6.87;4.07;;;;;;;22.19;31.00;99739.50;5015203;28;20197;-73
2022/04/30 11:16:45;;;;;;;7.03;4.83;;;;;;;22.25;31.42;99741.06;5032756;28;20218;-72
2022/04/30 11:19:14;;;;;;;8.00;3.80;;;;;;;22.20;31.03;99735.69;5032638;28;20183;-73
2022/04/30 11:21:43;;;;;;;4.13;3.73;;;;;;;22.25;32.17;99735.63;4999682;28;20214;-73
2022/04/30 11:24:11;;;;;;;4.97;3.93;;;;;;;22.16;30.69;99729.19;5032794;28;20259;-73
2022/04/30 11:26:43;;;;;;;4.50;4.10;;;;;;;22.19;30.58;99731.31;5015667;28;20186;-76
2022/04/30 11:29:10;;;;;;;4.67;4.27;;;;;;;22.27;31.33;99720.56;5032839;28;20449;-73
2022/04/30 11:31:38;;;;;;;4.33;3.90;;;;;;;22.37;32.08;99727.78;4999449;28;20218;-73
2022/04/30 11:34:12;;;;;;;4.43;4.03;;;;;;;22.58;30.92;99731.06;5015259;28;20237;-73
2022/04/30 11:36:44;;;;;;;4.97;3.77;;;;;;;22.45;30.40;99712.66;5015318;28;20186;-72
2022/04/30 11:39:12;;;;;;;5.07;4.00;;;;;;;22.53;31.52;99706.56;5032789;28;20213;-72
2022/04/30 11:41:44;;;;;;;4.00;3.70;;;;;;;22.69;29.96;99703.28;5015125;28;20214;-73
2022/04/30 11:44:13;;;;;;;4.03;3.30;;;;;;;22.68;29.69;99704.38;5015476;28;20620;-74
2022/04/30 11:46:40;;;;;;;5.23;4.07;;;;;;;22.93;30.81;99711.41;5032431;28;20181;-73
2022/04/30 11:49:12;;;;;;;4.28;3.60;;;;;;;22.80;30.72;99696.59;5032419;28;20186;-76
2022/04/30 11:52:00;;;;;;;4.45;3.70;;;;;;;22.96;29.85;99690.84;5000549;28;20557;-74
2022/04/30 11:54:28;;;;;;;8.20;4.25;;;;;;;22.97;30.03;99687.81;5032309;28;20190;-73
2022/04/30 11:56:57;;;;;;;4.13;3.70;;;;;;;22.97;29.27;99695.22;5014875;28;20413;-73
2022/04/30 11:59:35;;;;;;;4.00;3.60;;;;;;;23.14;28.96;99677.13;5032350;28;20181;-75
2022/04/30 12:02:04;;;;;;;4.97;3.50;;;;;;;23.26;28.20;99680.19;5031774;28;20723;-72
2022/04/30 12:04:33;;;;;;;4.25;3.80;;;;;;;23.39;27.87;99678.59;5032216;28;20240;-73
2022/04/30 12:07:05;;;;;;;5.85;3.40;;;;;;;23.32;27.86;99680.91;5010048;28;20195;-72
2022/04/30 12:09:35;;;;;;;4.18;3.25;;;;;;;22.94;27.94;99668.50;5015204;28;20172;-73
2022/04/30 12:12:16;;;;;;;3.80;3.50;;;;;;;23.01;28.66;99669.72;5013718;28;20512;-73
2022/04/30 12:14:50;;;;;;;4.35;3.22;;;;;;;22.93;28.02;99670.41;5014545;28;20204;-73